<?xml version="1.0" encoding="UTF-8" standalone="no" ?>
<gpx xmlns="http://www.topografix.com/GPX/1/1" xmlns:xsi="http://www.w3.org/2001/XMLSchema-instance" xsi:schemaLocation="http://www.topografix.com/GPX/1/1 http://www.topografix.com/GPX/1/1/gpx.xsd" version="1.1" creator="VisuGPX - https://www.visugpx.com">
  <metadata>
    <name>ARQUES LA SEYNE SUR MER 1497 KM</name>
    <desc><![CDATA[Rando de Arques dans le Pas de Calais jusque La Seyne sur Mer dans le Var, 1497 km]]></desc>
  </metadata>
  <trk>
    <name><![CDATA[47 - LA VOULTE SUR RHONE ST VINCENT DE BARRES 27.1 KM]]></name>
    <extensions>
      <line xmlns="http://www.topografix.com/GPX/gpx_style/0/2">
        <color>008888</color>
        <width>4</width>
      </line>
    </extensions>
    <trkseg>
      <trkpt lat="44.81717" lon="4.78534">
        <ele>123</ele>
        <time>2021-12-01T14:12:37+01:00</time>
      </trkpt>
      <trkpt lat="44.81708" lon="4.78491">
        <ele>126</ele>
        <time>2021-12-01T14:12:42+01:00</time>
      </trkpt>
      <trkpt lat="44.81679" lon="4.78497">
        <ele>130</ele>
        <time>2021-12-01T14:12:47+01:00</time>
      </trkpt>
      <trkpt lat="44.81565" lon="4.78637">
        <ele>137</ele>
        <time>2021-12-01T14:12:52+01:00</time>
      </trkpt>
      <trkpt lat="44.81511" lon="4.78735">
        <ele>138</ele>
        <time>2021-12-01T14:12:57+01:00</time>
      </trkpt>
      <trkpt lat="44.81417" lon="4.78701">
        <ele>139</ele>
        <time>2021-12-01T14:13:02+01:00</time>
      </trkpt>
      <trkpt lat="44.81352" lon="4.7874">
        <ele>127</ele>
        <time>2021-12-01T14:13:07+01:00</time>
      </trkpt>
      <trkpt lat="44.81331" lon="4.78694">
        <ele>126</ele>
        <time>2021-12-01T14:13:12+01:00</time>
      </trkpt>
      <trkpt lat="44.81303" lon="4.78631">
        <ele>125</ele>
        <time>2021-12-01T14:13:17+01:00</time>
      </trkpt>
      <trkpt lat="44.81295" lon="4.78549">
        <ele>126</ele>
        <time>2021-12-01T14:13:22+01:00</time>
      </trkpt>
      <trkpt lat="44.81264" lon="4.7851">
        <ele>122</ele>
        <time>2021-12-01T14:13:27+01:00</time>
      </trkpt>
      <trkpt lat="44.81223" lon="4.78592">
        <ele>115</ele>
        <time>2021-12-01T14:13:32+01:00</time>
      </trkpt>
      <trkpt lat="44.81096" lon="4.78717">
        <ele>105</ele>
        <time>2021-12-01T14:13:37+01:00</time>
      </trkpt>
      <trkpt lat="44.81081" lon="4.78749">
        <ele>104</ele>
        <time>2021-12-01T14:13:42+01:00</time>
      </trkpt>
      <trkpt lat="44.80983" lon="4.78672">
        <ele>101</ele>
        <time>2021-12-01T14:13:47+01:00</time>
      </trkpt>
      <trkpt lat="44.8085" lon="4.78588">
        <ele>96</ele>
        <time>2021-12-01T14:13:52+01:00</time>
      </trkpt>
      <trkpt lat="44.80738" lon="4.78446">
        <ele>94</ele>
        <time>2021-12-01T14:13:57+01:00</time>
      </trkpt>
      <trkpt lat="44.8066" lon="4.78346">
        <ele>94</ele>
        <time>2021-12-01T14:14:02+01:00</time>
      </trkpt>
      <trkpt lat="44.806" lon="4.78308">
        <ele>95</ele>
        <time>2021-12-01T14:14:07+01:00</time>
      </trkpt>
      <trkpt lat="44.80451" lon="4.78308">
        <ele>94</ele>
        <time>2021-12-01T14:14:12+01:00</time>
      </trkpt>
      <trkpt lat="44.80268" lon="4.78165">
        <ele>97</ele>
        <time>2021-12-01T14:14:17+01:00</time>
      </trkpt>
      <trkpt lat="44.80162" lon="4.78132">
        <ele>96</ele>
        <time>2021-12-01T14:14:22+01:00</time>
      </trkpt>
      <trkpt lat="44.80014" lon="4.78158">
        <ele>95</ele>
        <time>2021-12-01T14:14:27+01:00</time>
      </trkpt>
      <trkpt lat="44.79873" lon="4.78074">
        <ele>96</ele>
        <time>2021-12-01T14:14:32+01:00</time>
      </trkpt>
      <trkpt lat="44.7993" lon="4.77973">
        <ele>101</ele>
        <time>2021-12-01T14:14:37+01:00</time>
      </trkpt>
      <trkpt lat="44.79996" lon="4.77829">
        <ele>111</ele>
        <time>2021-12-01T14:14:42+01:00</time>
      </trkpt>
      <trkpt lat="44.80007" lon="4.77781">
        <ele>113</ele>
        <time>2021-12-01T14:14:47+01:00</time>
      </trkpt>
      <trkpt lat="44.79999" lon="4.77723">
        <ele>114</ele>
        <time>2021-12-01T14:14:52+01:00</time>
      </trkpt>
      <trkpt lat="44.79975" lon="4.77703">
        <ele>115</ele>
        <time>2021-12-01T14:14:57+01:00</time>
      </trkpt>
      <trkpt lat="44.79974" lon="4.77489">
        <ele>127</ele>
        <time>2021-12-01T14:15:02+01:00</time>
      </trkpt>
      <trkpt lat="44.79988" lon="4.77379">
        <ele>133</ele>
        <time>2021-12-01T14:15:07+01:00</time>
      </trkpt>
      <trkpt lat="44.79975" lon="4.77255">
        <ele>139</ele>
        <time>2021-12-01T14:15:12+01:00</time>
      </trkpt>
      <trkpt lat="44.79937" lon="4.7722">
        <ele>149</ele>
        <time>2021-12-01T14:15:17+01:00</time>
      </trkpt>
      <trkpt lat="44.79952" lon="4.77152">
        <ele>146</ele>
        <time>2021-12-01T14:15:22+01:00</time>
      </trkpt>
      <trkpt lat="44.79943" lon="4.7698">
        <ele>155</ele>
        <time>2021-12-01T14:15:27+01:00</time>
      </trkpt>
      <trkpt lat="44.79882" lon="4.76829">
        <ele>162</ele>
        <time>2021-12-01T14:15:32+01:00</time>
      </trkpt>
      <trkpt lat="44.79832" lon="4.76703">
        <ele>170</ele>
        <time>2021-12-01T14:15:37+01:00</time>
      </trkpt>
      <trkpt lat="44.79783" lon="4.76663">
        <ele>174</ele>
        <time>2021-12-01T14:15:42+01:00</time>
      </trkpt>
      <trkpt lat="44.79759" lon="4.76615">
        <ele>178</ele>
        <time>2021-12-01T14:15:47+01:00</time>
      </trkpt>
      <trkpt lat="44.79783" lon="4.76521">
        <ele>179</ele>
        <time>2021-12-01T14:15:52+01:00</time>
      </trkpt>
      <trkpt lat="44.79733" lon="4.76182">
        <ele>198</ele>
        <time>2021-12-01T14:15:57+01:00</time>
      </trkpt>
      <trkpt lat="44.79675" lon="4.7603">
        <ele>200</ele>
        <time>2021-12-01T14:16:02+01:00</time>
      </trkpt>
      <trkpt lat="44.79706" lon="4.75869">
        <ele>193</ele>
        <time>2021-12-01T14:16:07+01:00</time>
      </trkpt>
      <trkpt lat="44.79691" lon="4.75783">
        <ele>185</ele>
        <time>2021-12-01T14:16:12+01:00</time>
      </trkpt>
      <trkpt lat="44.79663" lon="4.75753">
        <ele>174</ele>
        <time>2021-12-01T14:16:17+01:00</time>
      </trkpt>
      <trkpt lat="44.79651" lon="4.75693">
        <ele>175</ele>
        <time>2021-12-01T14:16:22+01:00</time>
      </trkpt>
      <trkpt lat="44.79564" lon="4.7559">
        <ele>163</ele>
        <time>2021-12-01T14:16:27+01:00</time>
      </trkpt>
      <trkpt lat="44.79572" lon="4.75493">
        <ele>163</ele>
        <time>2021-12-01T14:16:32+01:00</time>
      </trkpt>
      <trkpt lat="44.79596" lon="4.75472">
        <ele>168</ele>
        <time>2021-12-01T14:16:37+01:00</time>
      </trkpt>
      <trkpt lat="44.79605" lon="4.75439">
        <ele>169</ele>
        <time>2021-12-01T14:16:42+01:00</time>
      </trkpt>
      <trkpt lat="44.79552" lon="4.75405">
        <ele>163</ele>
        <time>2021-12-01T14:16:47+01:00</time>
      </trkpt>
      <trkpt lat="44.79482" lon="4.7538">
        <ele>162</ele>
        <time>2021-12-01T14:16:52+01:00</time>
      </trkpt>
      <trkpt lat="44.79424" lon="4.75295">
        <ele>168</ele>
        <time>2021-12-01T14:16:57+01:00</time>
      </trkpt>
      <trkpt lat="44.79348" lon="4.75097">
        <ele>164</ele>
        <time>2021-12-01T14:17:02+01:00</time>
      </trkpt>
      <trkpt lat="44.79342" lon="4.75016">
        <ele>164</ele>
        <time>2021-12-01T14:17:07+01:00</time>
      </trkpt>
      <trkpt lat="44.79272" lon="4.74977">
        <ele>158</ele>
        <time>2021-12-01T14:17:12+01:00</time>
      </trkpt>
      <trkpt lat="44.79224" lon="4.74918">
        <ele>155</ele>
        <time>2021-12-01T14:17:17+01:00</time>
      </trkpt>
      <trkpt lat="44.7925" lon="4.74846">
        <ele>160</ele>
        <time>2021-12-01T14:17:22+01:00</time>
      </trkpt>
      <trkpt lat="44.79175" lon="4.74539">
        <ele>167</ele>
        <time>2021-12-01T14:17:27+01:00</time>
      </trkpt>
      <trkpt lat="44.79041" lon="4.74562">
        <ele>158</ele>
        <time>2021-12-01T14:17:32+01:00</time>
      </trkpt>
      <trkpt lat="44.78944" lon="4.74371">
        <ele>156</ele>
        <time>2021-12-01T14:17:37+01:00</time>
      </trkpt>
      <trkpt lat="44.78987" lon="4.74286">
        <ele>162</ele>
        <time>2021-12-01T14:17:42+01:00</time>
      </trkpt>
      <trkpt lat="44.78922" lon="4.74217">
        <ele>161</ele>
        <time>2021-12-01T14:17:47+01:00</time>
      </trkpt>
      <trkpt lat="44.78869" lon="4.74186">
        <ele>161</ele>
        <time>2021-12-01T14:17:52+01:00</time>
      </trkpt>
      <trkpt lat="44.78745" lon="4.74049">
        <ele>160</ele>
        <time>2021-12-01T14:17:57+01:00</time>
      </trkpt>
      <trkpt lat="44.78727" lon="4.73848">
        <ele>165</ele>
        <time>2021-12-01T14:18:02+01:00</time>
      </trkpt>
      <trkpt lat="44.78761" lon="4.7374">
        <ele>173</ele>
        <time>2021-12-01T14:18:07+01:00</time>
      </trkpt>
      <trkpt lat="44.78725" lon="4.73616">
        <ele>178</ele>
        <time>2021-12-01T14:18:12+01:00</time>
      </trkpt>
      <trkpt lat="44.7854" lon="4.73469">
        <ele>181</ele>
        <time>2021-12-01T14:18:17+01:00</time>
      </trkpt>
      <trkpt lat="44.7845" lon="4.73288">
        <ele>187</ele>
        <time>2021-12-01T14:18:22+01:00</time>
      </trkpt>
      <trkpt lat="44.78342" lon="4.73213">
        <ele>189</ele>
        <time>2021-12-01T14:18:27+01:00</time>
      </trkpt>
      <trkpt lat="44.7828" lon="4.73211">
        <ele>191</ele>
        <time>2021-12-01T14:18:32+01:00</time>
      </trkpt>
      <trkpt lat="44.78223" lon="4.73126">
        <ele>191</ele>
        <time>2021-12-01T14:18:37+01:00</time>
      </trkpt>
      <trkpt lat="44.78137" lon="4.73144">
        <ele>194</ele>
        <time>2021-12-01T14:18:42+01:00</time>
      </trkpt>
      <trkpt lat="44.78064" lon="4.73183">
        <ele>208</ele>
        <time>2021-12-01T14:18:47+01:00</time>
      </trkpt>
      <trkpt lat="44.77961" lon="4.73268">
        <ele>235</ele>
        <time>2021-12-01T14:18:52+01:00</time>
      </trkpt>
      <trkpt lat="44.7791" lon="4.73286">
        <ele>249</ele>
        <time>2021-12-01T14:18:57+01:00</time>
      </trkpt>
      <trkpt lat="44.7759" lon="4.73247">
        <ele>288</ele>
        <time>2021-12-01T14:19:02+01:00</time>
      </trkpt>
      <trkpt lat="44.77529" lon="4.73299">
        <ele>309</ele>
        <time>2021-12-01T14:19:07+01:00</time>
      </trkpt>
      <trkpt lat="44.77474" lon="4.73446">
        <ele>318</ele>
        <time>2021-12-01T14:19:12+01:00</time>
      </trkpt>
      <trkpt lat="44.7744" lon="4.73587">
        <ele>322</ele>
        <time>2021-12-01T14:19:17+01:00</time>
      </trkpt>
      <trkpt lat="44.77374" lon="4.73696">
        <ele>321</ele>
        <time>2021-12-01T14:19:22+01:00</time>
      </trkpt>
      <trkpt lat="44.77262" lon="4.73734">
        <ele>314</ele>
        <time>2021-12-01T14:19:27+01:00</time>
      </trkpt>
      <trkpt lat="44.77149" lon="4.73794">
        <ele>305</ele>
        <time>2021-12-01T14:19:32+01:00</time>
      </trkpt>
      <trkpt lat="44.77105" lon="4.74013">
        <ele>301</ele>
        <time>2021-12-01T14:19:37+01:00</time>
      </trkpt>
      <trkpt lat="44.77073" lon="4.74085">
        <ele>299</ele>
        <time>2021-12-01T14:19:42+01:00</time>
      </trkpt>
      <trkpt lat="44.77105" lon="4.74322">
        <ele>284</ele>
        <time>2021-12-01T14:19:47+01:00</time>
      </trkpt>
      <trkpt lat="44.76929" lon="4.74552">
        <ele>281</ele>
        <time>2021-12-01T14:19:52+01:00</time>
      </trkpt>
      <trkpt lat="44.76779" lon="4.74676">
        <ele>277</ele>
        <time>2021-12-01T14:19:57+01:00</time>
      </trkpt>
      <trkpt lat="44.76618" lon="4.74846">
        <ele>251</ele>
        <time>2021-12-01T14:20:02+01:00</time>
      </trkpt>
      <trkpt lat="44.76497" lon="4.74874">
        <ele>228</ele>
        <time>2021-12-01T14:20:07+01:00</time>
      </trkpt>
      <trkpt lat="44.76405" lon="4.74988">
        <ele>190</ele>
        <time>2021-12-01T14:20:12+01:00</time>
      </trkpt>
      <trkpt lat="44.76378" lon="4.74936">
        <ele>190</ele>
        <time>2021-12-01T14:20:17+01:00</time>
      </trkpt>
      <trkpt lat="44.76242" lon="4.7506">
        <ele>130</ele>
        <time>2021-12-01T14:20:22+01:00</time>
      </trkpt>
      <trkpt lat="44.76163" lon="4.75039">
        <ele>120</ele>
        <time>2021-12-01T14:20:27+01:00</time>
      </trkpt>
      <trkpt lat="44.76156" lon="4.75078">
        <ele>106</ele>
        <time>2021-12-01T14:20:32+01:00</time>
      </trkpt>
      <trkpt lat="44.76096" lon="4.75073">
        <ele>98</ele>
        <time>2021-12-01T14:20:37+01:00</time>
      </trkpt>
      <trkpt lat="44.75995" lon="4.75001">
        <ele>97</ele>
        <time>2021-12-01T14:20:42+01:00</time>
      </trkpt>
      <trkpt lat="44.75872" lon="4.74885">
        <ele>105</ele>
        <time>2021-12-01T14:20:47+01:00</time>
      </trkpt>
      <trkpt lat="44.75779" lon="4.7489">
        <ele>98</ele>
        <time>2021-12-01T14:20:52+01:00</time>
      </trkpt>
      <trkpt lat="44.75597" lon="4.74864">
        <ele>93</ele>
        <time>2021-12-01T14:20:57+01:00</time>
      </trkpt>
      <trkpt lat="44.75486" lon="4.74856">
        <ele>90</ele>
        <time>2021-12-01T14:21:02+01:00</time>
      </trkpt>
      <trkpt lat="44.75438" lon="4.74815">
        <ele>91</ele>
        <time>2021-12-01T14:21:07+01:00</time>
      </trkpt>
      <trkpt lat="44.75066" lon="4.7472">
        <ele>96</ele>
        <time>2021-12-01T14:21:12+01:00</time>
      </trkpt>
      <trkpt lat="44.7496" lon="4.74678">
        <ele>93</ele>
        <time>2021-12-01T14:21:17+01:00</time>
      </trkpt>
      <trkpt lat="44.74828" lon="4.74617">
        <ele>91</ele>
        <time>2021-12-01T14:21:22+01:00</time>
      </trkpt>
      <trkpt lat="44.74548" lon="4.74498">
        <ele>90</ele>
        <time>2021-12-01T14:21:27+01:00</time>
      </trkpt>
      <trkpt lat="44.74343" lon="4.74402">
        <ele>91</ele>
        <time>2021-12-01T14:21:32+01:00</time>
      </trkpt>
      <trkpt lat="44.74237" lon="4.74348">
        <ele>92</ele>
        <time>2021-12-01T14:21:37+01:00</time>
      </trkpt>
      <trkpt lat="44.74149" lon="4.74232">
        <ele>99</ele>
        <time>2021-12-01T14:21:42+01:00</time>
      </trkpt>
      <trkpt lat="44.74019" lon="4.7415">
        <ele>99</ele>
        <time>2021-12-01T14:21:47+01:00</time>
      </trkpt>
      <trkpt lat="44.73707" lon="4.74108">
        <ele>107</ele>
        <time>2021-12-01T14:21:52+01:00</time>
      </trkpt>
      <trkpt lat="44.73548" lon="4.74052">
        <ele>102</ele>
        <time>2021-12-01T14:21:57+01:00</time>
      </trkpt>
      <trkpt lat="44.73438" lon="4.73972">
        <ele>105</ele>
        <time>2021-12-01T14:22:02+01:00</time>
      </trkpt>
      <trkpt lat="44.73333" lon="4.73874">
        <ele>113</ele>
        <time>2021-12-01T14:22:07+01:00</time>
      </trkpt>
      <trkpt lat="44.73201" lon="4.73804">
        <ele>104</ele>
        <time>2021-12-01T14:22:12+01:00</time>
      </trkpt>
      <trkpt lat="44.72972" lon="4.7375">
        <ele>117</ele>
        <time>2021-12-01T14:22:17+01:00</time>
      </trkpt>
      <trkpt lat="44.72784" lon="4.7375">
        <ele>118</ele>
        <time>2021-12-01T14:22:22+01:00</time>
      </trkpt>
      <trkpt lat="44.72565" lon="4.73627">
        <ele>122</ele>
        <time>2021-12-01T14:22:27+01:00</time>
      </trkpt>
      <trkpt lat="44.72373" lon="4.73473">
        <ele>127</ele>
        <time>2021-12-01T14:22:32+01:00</time>
      </trkpt>
      <trkpt lat="44.72192" lon="4.73377">
        <ele>129</ele>
        <time>2021-12-01T14:22:37+01:00</time>
      </trkpt>
      <trkpt lat="44.71962" lon="4.73324">
        <ele>135</ele>
        <time>2021-12-01T14:22:42+01:00</time>
      </trkpt>
      <trkpt lat="44.71781" lon="4.73165">
        <ele>134</ele>
        <time>2021-12-01T14:22:47+01:00</time>
      </trkpt>
      <trkpt lat="44.71675" lon="4.73149">
        <ele>129</ele>
        <time>2021-12-01T14:22:52+01:00</time>
      </trkpt>
      <trkpt lat="44.71566" lon="4.72989">
        <ele>135</ele>
        <time>2021-12-01T14:22:57+01:00</time>
      </trkpt>
      <trkpt lat="44.71347" lon="4.72782">
        <ele>144</ele>
        <time>2021-12-01T14:23:02+01:00</time>
      </trkpt>
      <trkpt lat="44.71173" lon="4.72628">
        <ele>151</ele>
        <time>2021-12-01T14:23:07+01:00</time>
      </trkpt>
      <trkpt lat="44.70981" lon="4.72469">
        <ele>153</ele>
        <time>2021-12-01T14:23:12+01:00</time>
      </trkpt>
      <trkpt lat="44.70788" lon="4.72267">
        <ele>149</ele>
        <time>2021-12-01T14:23:17+01:00</time>
      </trkpt>
      <trkpt lat="44.70517" lon="4.72129">
        <ele>153</ele>
        <time>2021-12-01T14:23:22+01:00</time>
      </trkpt>
      <trkpt lat="44.70373" lon="4.72464">
        <ele>167</ele>
        <time>2021-12-01T14:23:27+01:00</time>
      </trkpt>
      <trkpt lat="44.70113" lon="4.72835">
        <ele>178</ele>
        <time>2021-12-01T14:23:32+01:00</time>
      </trkpt>
      <trkpt lat="44.69841" lon="4.72851">
        <ele>182</ele>
        <time>2021-12-01T14:23:37+01:00</time>
      </trkpt>
      <trkpt lat="44.69758" lon="4.72719">
        <ele>181</ele>
        <time>2021-12-01T14:23:42+01:00</time>
      </trkpt>
      <trkpt lat="44.69698" lon="4.72862">
        <ele>188</ele>
        <time>2021-12-01T14:23:47+01:00</time>
      </trkpt>
      <trkpt lat="44.69626" lon="4.7291">
        <ele>196</ele>
        <time>2021-12-01T14:23:52+01:00</time>
      </trkpt>
      <trkpt lat="44.69475" lon="4.72973">
        <ele>211</ele>
        <time>2021-12-01T14:23:57+01:00</time>
      </trkpt>
      <trkpt lat="44.69411" lon="4.72846">
        <ele>214</ele>
        <time>2021-12-01T14:24:02+01:00</time>
      </trkpt>
      <trkpt lat="44.69301" lon="4.7283">
        <ele>225</ele>
        <time>2021-12-01T14:24:07+01:00</time>
      </trkpt>
      <trkpt lat="44.69196" lon="4.72899">
        <ele>239</ele>
        <time>2021-12-01T14:24:12+01:00</time>
      </trkpt>
      <trkpt lat="44.69199" lon="4.73064">
        <ele>250</ele>
        <time>2021-12-01T14:24:17+01:00</time>
      </trkpt>
      <trkpt lat="44.6916" lon="4.73043">
        <ele>253</ele>
        <time>2021-12-01T14:24:22+01:00</time>
      </trkpt>
      <trkpt lat="44.69093" lon="4.73066">
        <ele>269</ele>
        <time>2021-12-01T14:24:27+01:00</time>
      </trkpt>
      <trkpt lat="44.69076" lon="4.73036">
        <ele>266</ele>
        <time>2021-12-01T14:24:32+01:00</time>
      </trkpt>
      <trkpt lat="44.68978" lon="4.73025">
        <ele>282</ele>
        <time>2021-12-01T14:24:37+01:00</time>
      </trkpt>
      <trkpt lat="44.68961" lon="4.73009">
        <ele>280</ele>
        <time>2021-12-01T14:24:42+01:00</time>
      </trkpt>
      <trkpt lat="44.68939" lon="4.73039">
        <ele>291</ele>
        <time>2021-12-01T14:24:47+01:00</time>
      </trkpt>
      <trkpt lat="44.68803" lon="4.73024">
        <ele>319</ele>
        <time>2021-12-01T14:24:52+01:00</time>
      </trkpt>
      <trkpt lat="44.68762" lon="4.73024">
        <ele>326</ele>
        <time>2021-12-01T14:24:57+01:00</time>
      </trkpt>
      <trkpt lat="44.68741" lon="4.73009">
        <ele>324</ele>
        <time>2021-12-01T14:25:02+01:00</time>
      </trkpt>
      <trkpt lat="44.68566" lon="4.73114">
        <ele>345</ele>
        <time>2021-12-01T14:25:07+01:00</time>
      </trkpt>
      <trkpt lat="44.68459" lon="4.73104">
        <ele>348</ele>
        <time>2021-12-01T14:25:12+01:00</time>
      </trkpt>
      <trkpt lat="44.68416" lon="4.73132">
        <ele>356</ele>
        <time>2021-12-01T14:25:17+01:00</time>
      </trkpt>
      <trkpt lat="44.68374" lon="4.73181">
        <ele>360</ele>
        <time>2021-12-01T14:25:22+01:00</time>
      </trkpt>
      <trkpt lat="44.68374" lon="4.73304">
        <ele>376</ele>
        <time>2021-12-01T14:25:27+01:00</time>
      </trkpt>
      <trkpt lat="44.68325" lon="4.73329">
        <ele>378</ele>
        <time>2021-12-01T14:25:32+01:00</time>
      </trkpt>
      <trkpt lat="44.68244" lon="4.73364">
        <ele>377</ele>
        <time>2021-12-01T14:25:37+01:00</time>
      </trkpt>
      <trkpt lat="44.68197" lon="4.73365">
        <ele>377</ele>
        <time>2021-12-01T14:25:42+01:00</time>
      </trkpt>
      <trkpt lat="44.68092" lon="4.73298">
        <ele>374</ele>
        <time>2021-12-01T14:25:47+01:00</time>
      </trkpt>
      <trkpt lat="44.68054" lon="4.73171">
        <ele>356</ele>
        <time>2021-12-01T14:25:52+01:00</time>
      </trkpt>
      <trkpt lat="44.68026" lon="4.73174">
        <ele>360</ele>
        <time>2021-12-01T14:25:57+01:00</time>
      </trkpt>
      <trkpt lat="44.68018" lon="4.732">
        <ele>362</ele>
        <time>2021-12-01T14:26:02+01:00</time>
      </trkpt>
      <trkpt lat="44.67998" lon="4.73181">
        <ele>364</ele>
        <time>2021-12-01T14:26:07+01:00</time>
      </trkpt>
      <trkpt lat="44.67981" lon="4.73146">
        <ele>363</ele>
        <time>2021-12-01T14:26:12+01:00</time>
      </trkpt>
      <trkpt lat="44.67863" lon="4.73079">
        <ele>382</ele>
        <time>2021-12-01T14:26:17+01:00</time>
      </trkpt>
      <trkpt lat="44.67802" lon="4.73117">
        <ele>368</ele>
        <time>2021-12-01T14:26:22+01:00</time>
      </trkpt>
      <trkpt lat="44.67743" lon="4.73138">
        <ele>360</ele>
        <time>2021-12-01T14:26:27+01:00</time>
      </trkpt>
      <trkpt lat="44.67768" lon="4.73078">
        <ele>369</ele>
        <time>2021-12-01T14:26:32+01:00</time>
      </trkpt>
      <trkpt lat="44.67739" lon="4.72925">
        <ele>381</ele>
        <time>2021-12-01T14:26:37+01:00</time>
      </trkpt>
      <trkpt lat="44.67671" lon="4.72858">
        <ele>373</ele>
        <time>2021-12-01T14:26:42+01:00</time>
      </trkpt>
      <trkpt lat="44.67705" lon="4.72747">
        <ele>368</ele>
        <time>2021-12-01T14:26:47+01:00</time>
      </trkpt>
      <trkpt lat="44.67634" lon="4.72688">
        <ele>355</ele>
        <time>2021-12-01T14:26:52+01:00</time>
      </trkpt>
      <trkpt lat="44.67393" lon="4.72628">
        <ele>346</ele>
        <time>2021-12-01T14:26:57+01:00</time>
      </trkpt>
      <trkpt lat="44.67208" lon="4.72588">
        <ele>335</ele>
        <time>2021-12-01T14:27:02+01:00</time>
      </trkpt>
      <trkpt lat="44.67138" lon="4.72598">
        <ele>331</ele>
        <time>2021-12-01T14:27:07+01:00</time>
      </trkpt>
      <trkpt lat="44.6689" lon="4.72502">
        <ele>326</ele>
        <time>2021-12-01T14:27:12+01:00</time>
      </trkpt>
      <trkpt lat="44.66733" lon="4.72463">
        <ele>320</ele>
        <time>2021-12-01T14:27:17+01:00</time>
      </trkpt>
      <trkpt lat="44.66571" lon="4.72467">
        <ele>327</ele>
        <time>2021-12-01T14:27:22+01:00</time>
      </trkpt>
      <trkpt lat="44.66565" lon="4.7242">
        <ele>324</ele>
        <time>2021-12-01T14:27:27+01:00</time>
      </trkpt>
      <trkpt lat="44.66566" lon="4.72385">
        <ele>315</ele>
        <time>2021-12-01T14:27:32+01:00</time>
      </trkpt>
      <trkpt lat="44.66524" lon="4.72385">
        <ele>311</ele>
        <time>2021-12-01T14:27:37+01:00</time>
      </trkpt>
      <trkpt lat="44.66447" lon="4.72433">
        <ele>309</ele>
        <time>2021-12-01T14:27:42+01:00</time>
      </trkpt>
      <trkpt lat="44.66388" lon="4.72479">
        <ele>314</ele>
        <time>2021-12-01T14:27:47+01:00</time>
      </trkpt>
      <trkpt lat="44.66278" lon="4.72492">
        <ele>307</ele>
        <time>2021-12-01T14:27:52+01:00</time>
      </trkpt>
      <trkpt lat="44.66202" lon="4.72523">
        <ele>312</ele>
        <time>2021-12-01T14:27:57+01:00</time>
      </trkpt>
      <trkpt lat="44.66179" lon="4.7252">
        <ele>313</ele>
        <time>2021-12-01T14:28:02+01:00</time>
      </trkpt>
      <trkpt lat="44.66183" lon="4.72497">
        <ele>310</ele>
        <time>2021-12-01T14:28:07+01:00</time>
      </trkpt>
      <trkpt lat="44.66217" lon="4.72463">
        <ele>312</ele>
        <time>2021-12-01T14:28:12+01:00</time>
      </trkpt>
      <trkpt lat="44.66285" lon="4.72418">
        <ele>303</ele>
        <time>2021-12-01T14:28:17+01:00</time>
      </trkpt>
      <trkpt lat="44.66357" lon="4.72349">
        <ele>297</ele>
        <time>2021-12-01T14:28:22+01:00</time>
      </trkpt>
      <trkpt lat="44.66409" lon="4.72244">
        <ele>281</ele>
        <time>2021-12-01T14:28:27+01:00</time>
      </trkpt>
      <trkpt lat="44.66411" lon="4.72183">
        <ele>281</ele>
        <time>2021-12-01T14:28:32+01:00</time>
      </trkpt>
      <trkpt lat="44.66462" lon="4.72169">
        <ele>270</ele>
        <time>2021-12-01T14:28:37+01:00</time>
      </trkpt>
      <trkpt lat="44.66645" lon="4.71684">
        <ele>233</ele>
        <time>2021-12-01T14:28:42+01:00</time>
      </trkpt>
      <trkpt lat="44.66581" lon="4.71513">
        <ele>229</ele>
        <time>2021-12-01T14:28:47+01:00</time>
      </trkpt>
      <trkpt lat="44.66498" lon="4.71465">
        <ele>231</ele>
        <time>2021-12-01T14:28:52+01:00</time>
      </trkpt>
      <trkpt lat="44.66257" lon="4.71122">
        <ele>228</ele>
        <time>2021-12-01T14:28:57+01:00</time>
      </trkpt>
      <trkpt lat="44.66376" lon="4.70882">
        <ele>225</ele>
        <time>2021-12-01T14:29:02+01:00</time>
      </trkpt>
      <trkpt lat="44.66398" lon="4.70774">
        <ele>221</ele>
        <time>2021-12-01T14:29:07+01:00</time>
      </trkpt>
      <trkpt lat="44.66462" lon="4.70787">
        <ele>218</ele>
        <time>2021-12-01T14:29:12+01:00</time>
      </trkpt>
      <trkpt lat="44.6656" lon="4.70589">
        <ele>214</ele>
        <time>2021-12-01T14:29:17+01:00</time>
      </trkpt>
      <trkpt lat="44.66675" lon="4.70512">
        <ele>227</ele>
        <time>2021-12-01T14:29:22+01:00</time>
      </trkpt>
      <trkpt lat="44.66659" lon="4.70434">
        <ele>232</ele>
        <time>2021-12-01T14:29:27+01:00</time>
      </trkpt>
      <trkpt lat="44.66733" lon="4.70273">
        <ele>237</ele>
        <time>2021-12-01T14:29:32+01:00</time>
      </trkpt>
      <trkpt lat="44.66756" lon="4.7017">
        <ele>239</ele>
        <time>2021-12-01T14:29:37+01:00</time>
      </trkpt>
      <trkpt lat="44.66836" lon="4.69992">
        <ele>243</ele>
        <time>2021-12-01T14:29:42+01:00</time>
      </trkpt>
      <trkpt lat="44.66977" lon="4.6961">
        <ele>251</ele>
        <time>2021-12-01T14:29:47+01:00</time>
      </trkpt>
      <trkpt lat="44.66977" lon="4.69552">
        <ele>253</ele>
        <time>2021-12-01T14:29:52+01:00</time>
      </trkpt>
      <trkpt lat="44.66954" lon="4.69499">
        <ele>253</ele>
        <time>2021-12-01T14:29:57+01:00</time>
      </trkpt>
      <trkpt lat="44.66858" lon="4.69411">
        <ele>245</ele>
        <time>2021-12-01T14:30:02+01:00</time>
      </trkpt>
    </trkseg>
  </trk>
</gpx>